Time;durP1;ratioP1;P1;durP2;ratioP2;P2;SDS_P1;SDS_P2;PMS_P1;PMS_P2;Temp;Humidity;BMP_temperature;BMP_pressure;BME280_temperature;BME280_humidity;BME280_pressure;Samples;Min_cycle;Max_cycle;Signal;HPM_P1;HPM_P2
2022/08/23 00:01:19;;;;;;;2.70;2.30;;;20.10;99.90;;;19.51;100.00;101199.94;3909041;30;20036;-78
2022/08/23 00:03:20;;;;;;;3.17;2.40;;;20.10;99.90;;;19.35;100.00;101168.19;3907375;30;20474;-78
2022/08/23 00:05:21;;;;;;;4.43;2.40;;;20.10;99.90;;;19.53;100.00;101184.53;3904739;30;20044;-77
2022/08/23 00:07:22;;;;;;;3.35;2.10;;;20.10;99.90;;;19.47;100.00;101185.34;3907790;30;20044;-78
2022/08/23 00:09:26;;;;;;;2.70;2.30;;;20.20;99.90;;;19.58;100.00;101198.09;3922314;30;20037;-77
2022/08/23 00:11:42;;;;;;;3.42;1.60;;;20.20;99.90;;;19.56;100.00;101186.75;3908721;30;20071;-78
2022/08/23 00:13:43;;;;;;;2.80;2.40;;;20.20;99.90;;;19.50;100.00;101171.53;3906471;30;20084;-77
2022/08/23 00:15:44;;;;;;;3.95;2.30;;;20.20;99.90;;;19.62;100.00;101190.50;3907757;30;20041;-78
2022/08/23 00:17:45;;;;;;;3.63;1.90;;;20.20;99.90;;;19.61;100.00;101183.50;3900068;30;20076;-78
2022/08/23 00:19:47;;;;;;;3.50;2.40;;;20.20;99.90;;;19.62;100.00;101185.94;3908792;30;20530;-78
2022/08/23 00:21:50;;;;;;;2.88;2.45;;;20.20;99.90;;;19.60;100.00;101182.66;3907467;30;20041;-77
2022/08/23 00:23:51;;;;;;;5.13;2.85;;;20.20;99.90;;;19.60;100.00;101173.78;3896304;30;20033;-78
2022/08/23 00:25:52;;;;;;;2.92;2.28;;;20.20;99.90;;;19.62;100.00;101179.78;3907414;30;20045;-78
2022/08/23 00:27:53;;;;;;;3.13;2.22;;;20.20;99.90;;;19.63;100.00;101182.25;3903104;30;20064;-78
2022/08/23 00:29:56;;;;;;;3.92;2.25;;;20.20;99.90;;;19.64;100.00;101178.56;3907696;30;20041;-77
2022/08/23 00:31:58;;;;;;;4.15;2.70;;;20.20;99.90;;;19.63;100.00;101182.25;3896300;30;20033;-78
2022/08/23 00:33:59;;;;;;;3.95;2.28;;;20.20;99.90;;;19.61;100.00;101178.13;3908563;30;20125;-78
2022/08/23 00:36:00;;;;;;;2.50;2.10;;;20.20;99.90;;;19.53;100.00;101171.13;3907953;30;20038;-78
2022/08/23 00:38:01;;;;;;;3.80;2.58;;;20.20;99.90;;;19.57;100.00;101179.56;3907392;30;20105;-77
2022/08/23 00:40:07;;;;;;;3.63;2.40;;;20.10;99.90;;;19.55;100.00;101179.78;3896237;30;20025;-78
2022/08/23 00:49:35;;;;;;;3.05;2.58;;;20.00;99.90;;;19.40;100.00;101173.78;3906097;30;20043;-77
2022/08/23 00:52:00;;;;;;;2.88;2.05;;;20.00;99.90;;;19.42;100.00;101171.72;3907254;30;20052;-78
2022/08/23 00:54:02;;;;;;;3.22;2.30;;;20.00;99.90;;;19.42;100.00;101171.72;3903090;30;20033;-78
2022/08/23 00:56:08;;;;;;;3.47;2.13;;;20.00;99.90;;;19.44;100.00;101176.88;3907425;30;20446;-78
2022/08/23 00:58:10;;;;;;;3.65;2.25;;;20.00;99.90;;;19.46;100.00;101180.16;3897422;30;20467;-78
2022/08/23 01:00:13;;;;;;;2.50;1.77;;;20.00;99.90;;;19.42;100.00;101173.56;3907391;30;20044;-77
2022/08/23 01:02:15;;;;;;;2.40;2.08;;;20.00;99.90;;;19.38;100.00;101174.97;3903569;30;20033;-77
2022/08/23 01:04:16;;;;;;;3.03;2.10;;;20.00;99.90;;;19.37;100.00;101167.97;3907179;30;20067;-77
2022/08/23 01:06:42;;;;;;;3.50;2.45;;;20.00;99.90;;;19.40;100.00;101167.59;3906816;30;20093;-78
2022/08/23 01:08:50;;;;;;;2.65;2.20;;;20.00;99.90;;;19.42;100.00;101177.06;3917506;30;20036;-78
2022/08/23 01:10:59;;;;;;;3.95;2.47;;;20.00;99.90;;;19.40;100.00;101175.63;3907314;30;20576;-78
2022/08/23 01:13:16;;;;;;;2.92;2.03;;;20.00;99.90;;;19.34;100.00;101164.69;3906354;30;20037;-77
2022/08/23 01:15:31;;;;;;;2.88;2.17;;;20.00;99.90;;;19.38;100.00;101172.31;3906563;30;20548;-77
2022/08/23 01:17:49;;;;;;;3.10;2.30;;;20.00;99.90;;;19.42;100.00;101171.72;3897021;30;20037;-78
2022/08/23 01:19:56;;;;;;;4.60;2.20;;;20.00;99.90;;;19.41;100.00;101171.94;3906731;30;20036;-78
2022/08/23 01:22:14;;;;;;;2.70;2.10;;;20.00;99.90;;;19.35;100.00;101165.50;3905350;30;20029;-78
2022/08/23 01:24:16;;;;;;;3.33;2.25;;;20.00;99.90;;;19.36;100.00;101169.81;3906555;30;20725;-78
2022/08/23 01:26:20;;;;;;;2.78;2.17;;;20.00;99.90;;;19.37;100.00;101168.81;3905745;30;20033;-78
2022/08/23 01:28:21;;;;;;;3.35;2.60;;;20.00;99.90;;;19.35;100.00;101165.50;3921053;30;20077;-78
2022/08/23 01:30:28;;;;;;;3.50;2.63;;;19.90;99.90;;;19.31;100.00;101161.59;3906885;30;20063;-78
2022/08/23 01:32:31;;;;;;;2.75;2.35;;;20.00;99.90;;;19.33;100.00;101163.03;3885076;30;20138;-78
2022/08/23 01:34:32;;;;;;;3.28;2.20;;;20.00;99.90;;;19.24;100.00;101144.69;3920838;30;20040;-78
2022/08/23 01:36:34;;;;;;;3.05;1.92;;;19.90;99.90;;;19.31;100.00;101150.88;3906365;30;20530;-78
2022/08/23 01:38:36;;;;;;;2.70;2.25;;;19.90;99.90;;;19.36;100.00;101159.13;3896303;30;20499;-78
2022/08/23 01:40:38;;;;;;;2.97;2.38;;;20.00;99.90;;;19.38;100.00;101161.59;3906512;30;20037;-77
2022/08/23 01:42:40;;;;;;;3.38;1.80;;;20.00;99.90;;;19.35;100.00;101160.97;3902985;30;20040;-78
2022/08/23 01:44:41;;;;;;;3.88;2.00;;;20.00;99.90;;;19.41;100.00;101167.41;3906175;30;20033;-78
2022/08/23 01:46:46;;;;;;;2.75;2.20;;;20.00;99.90;;;19.42;100.00;101163.69;3896046;30;20426;-78
2022/08/23 01:48:49;;;;;;;3.28;2.00;;;20.00;99.90;;;19.35;100.00;101158.28;3907256;30;20060;-78
2022/08/23 01:50:49;;;;;;;3.55;2.45;;;20.00;99.90;;;19.43;100.00;101170.69;3906437;30;20051;-78
2022/08/23 01:52:51;;;;;;;2.90;1.90;;;20.00;99.90;;;19.40;100.00;101157.72;3905059;30;20506;-78
2022/08/23 01:54:52;;;;;;;3.40;2.20;;;20.00;99.90;;;19.44;100.00;101161.66;3918622;30;20041;-77
2022/08/23 01:56:53;;;;;;;3.95;2.55;;;20.00;99.90;;;19.44;100.00;101161.66;3907353;30;20052;-78
2022/08/23 01:58:54;;;;;;;3.10;2.38;;;20.00;99.90;;;19.44;100.00;101164.34;3906269;30;20037;-77
2022/08/23 02:00:56;;;;;;;3.40;2.90;;;20.00;99.90;;;19.38;100.00;101161.59;3904626;30;20541;-78
2022/08/23 02:02:58;;;;;;;3.30;2.85;;;20.00;99.90;;;19.41;100.00;101167.41;3906312;30;20092;-78
2022/08/23 02:04:59;;;;;;;4.32;2.78;;;20.00;99.90;;;19.42;100.00;101166.38;3906216;30;20033;-78
2022/08/23 02:07:00;;;;;;;3.45;2.15;;;20.00;99.90;;;19.46;100.00;101172.13;3902009;30;20052;-78
2022/08/23 02:09:01;;;;;;;3.42;2.95;;;20.00;99.90;;;19.45;100.00;101168.63;3906088;30;20036;-78
2022/08/23 02:11:13;;;;;;;3.25;2.70;;;20.00;99.90;;;19.39;100.00;101164.09;3907382;30;20127;-78
2022/08/23 02:13:15;;;;;;;3.97;3.05;;;20.00;99.90;;;19.35;100.00;101158.28;3905998;30;20043;-78
2022/08/23 02:15:17;;;;;;;4.13;2.85;;;20.00;99.90;;;19.44;100.00;101169.69;3903320;30;20056;-78
2022/08/23 02:17:18;;;;;;;5.07;3.33;;;20.00;99.90;;;19.40;100.00;101165.75;3906388;30;20532;-78
2022/08/23 02:19:19;;;;;;;4.03;2.60;;;20.00;99.90;;;19.44;100.00;101160.81;3898668;30;20033;-78
2022/08/23 02:21:20;;;;;;;5.70;3.40;;;20.00;99.90;;;19.45;100.00;101170.47;3906138;30;20391;-77
2022/08/23 02:23:22;;;;;;;3.78;2.80;;;20.00;99.90;;;19.43;100.00;101169.88;3904359;30;20029;-78
2022/08/23 02:25:23;;;;;;;4.97;3.60;;;20.00;99.90;;;19.41;100.00;101172.75;3906110;30;20033;-77
2022/08/23 02:27:24;;;;;;;4.57;3.00;;;20.00;99.90;;;19.37;100.00;101166.13;3897130;30;20040;-78
2022/08/23 02:29:28;;;;;;;3.53;3.08;;;20.00;99.90;;;19.46;100.00;101178.31;3920621;30;20028;-78
2022/08/23 02:31:33;;;;;;;3.35;2.80;;;20.00;99.90;;;19.43;100.00;101167.19;3920157;30;20040;-77
2022/08/23 02:33:34;;;;;;;3.60;2.30;;;20.00;99.90;;;19.30;100.00;101159.94;3906067;30;20033;-77
2022/08/23 02:35:34;;;;;;;4.38;2.42;;;20.00;99.90;;;19.35;100.00;101169.00;3898848;30;20500;-77
2022/08/23 02:37:35;;;;;;;3.58;2.65;;;20.00;99.90;;;19.39;100.00;101177.47;3905960;30;20030;-78
2022/08/23 02:39:37;;;;;;;3.65;2.45;;;20.00;99.90;;;19.34;100.00;101171.88;3904232;30;20077;-78
2022/08/23 02:41:40;;;;;;;3.15;2.20;;;20.00;99.90;;;19.28;100.00;101170.03;3905793;30;20033;-78
2022/08/23 02:43:40;;;;;;;3.10;2.20;;;19.90;99.90;;;19.33;100.00;101175.56;3897450;30;20181;-78
2022/08/23 02:45:41;;;;;;;3.38;2.28;;;19.90;99.90;;;19.37;100.00;101184.84;3906076;30;20475;-77
2022/08/23 02:47:44;;;;;;;4.07;3.00;;;20.00;99.90;;;19.30;100.00;101173.31;3904311;30;20052;-78
2022/08/23 02:49:45;;;;;;;3.95;2.70;;;19.90;99.90;;;19.24;100.00;101161.56;3906073;30;20041;-77
2022/08/23 02:51:46;;;;;;;3.63;2.80;;;19.90;99.90;;;19.21;100.00;101169.16;3898752;30;20052;-77
2022/08/23 02:53:48;;;;;;;3.90;2.38;;;19.90;99.90;;;19.20;100.00;101164.88;3907270;30;20037;-77
2022/08/23 02:55:50;;;;;;;4.95;2.42;;;19.90;99.90;;;19.30;100.00;101173.31;3905724;30;20175;-77
2022/08/23 02:57:51;;;;;;;3.38;2.28;;;19.90;99.90;;;19.29;100.00;101174.34;3895460;30;20405;-78
2022/08/23 02:59:52;;;;;;;4.28;2.33;;;19.90;99.90;;;19.30;100.00;101175.97;3908957;30;20037;-78
2022/08/23 03:01:53;;;;;;;3.53;2.45;;;19.90;99.90;;;19.22;100.00;101173.50;3909927;30;20128;-78
2022/08/23 03:03:55;;;;;;;4.10;2.45;;;19.90;99.90;;;19.29;100.00;101177.81;3908615;30;20071;-77
2022/08/23 03:05:56;;;;;;;7.00;2.97;;;19.90;99.90;;;19.16;100.00;101156.41;3897197;30;20162;-77
2022/08/23 03:07:57;;;;;;;4.95;2.35;;;19.90;99.90;;;19.33;100.00;101186.28;3908607;30;20037;-78
2022/08/23 03:09:58;;;;;;;3.80;2.53;;;19.90;99.90;;;19.29;100.00;101175.16;3909668;30;20033;-78
2022/08/23 03:11:59;;;;;;;3.22;2.13;;;19.90;99.90;;;19.19;100.00;101156.00;3908400;30;20084;-78
2022/08/23 03:14:00;;;;;;;3.33;2.17;;;19.90;99.90;;;19.19;100.00;101158.69;3909176;30;20061;-78
2022/08/23 03:16:02;;;;;;;4.75;2.35;;;19.90;99.90;;;19.19;100.00;101168.56;3909542;30;20037;-77
2022/08/23 03:18:03;;;;;;;4.60;2.03;;;19.90;99.90;;;19.23;100.00;101180.50;3909567;30;20025;-78
2022/08/23 03:20:05;;;;;;;3.53;2.10;;;19.80;99.90;;;19.17;100.00;101175.97;3908575;30;20041;-78
2022/08/23 03:22:06;;;;;;;2.35;1.70;;;19.80;99.90;;;19.18;100.00;101174.91;3908227;30;20116;-78
2022/08/23 03:24:06;;;;;;;2.63;1.48;;;19.80;99.90;;;19.17;100.00;101181.31;3908411;30;20491;-77
2022/08/23 03:26:10;;;;;;;4.75;1.98;;;19.80;99.90;;;19.07;100.00;101178.19;3907443;30;20036;-78
2022/08/23 03:28:11;;;;;;;2.47;1.48;;;19.70;99.90;;;18.95;100.00;101174.44;3908253;30;20040;-78
2022/08/23 03:30:12;;;;;;;3.08;1.83;;;19.60;99.90;;;18.83;100.00;101168.00;3907960;30;20538;-78
2022/08/23 03:32:13;;;;;;;3.03;1.75;;;19.50;99.90;;;18.72;100.00;101159.56;3908277;30;20045;-77
2022/08/23 03:34:14;;;;;;;3.47;1.30;;;19.50;99.90;;;18.69;100.00;101170.66;3908290;30;20537;-78
2022/08/23 03:36:15;;;;;;;2.40;1.30;;;19.40;99.90;;;18.58;100.00;101159.66;3905999;30;20094;-78
2022/08/23 03:38:18;;;;;;;1.60;1.23;;;19.30;99.90;;;18.47;100.00;101155.69;3908005;30;20431;-77
2022/08/23 03:40:21;;;;;;;1.80;1.40;;;19.20;99.90;;;18.44;100.00;101161.41;3899294;30;20033;-77
2022/08/23 03:42:22;;;;;;;3.50;1.70;;;19.10;99.90;;;18.47;100.00;101173.56;3908031;30;20404;-78
2022/08/23 03:44:23;;;;;;;2.30;1.45;;;19.10;99.90;;;18.33;100.00;101159.31;3909151;30;20039;-78
2022/08/23 03:46:24;;;;;;;3.20;2.15;;;19.00;99.90;;;18.35;100.00;101159.94;3909207;30;20627;-78
2022/08/23 03:48:25;;;;;;;2.92;1.60;;;19.00;99.90;;;18.34;100.00;101158.25;3908082;30;20037;-78
2022/08/23 03:50:27;;;;;;;2.80;1.58;;;18.90;99.90;;;18.30;100.00;101157.03;3901778;30;20129;-77
2022/08/23 03:52:28;;;;;;;2.38;1.60;;;18.90;99.90;;;18.22;100.00;101155.31;3909084;30;20040;-78
2022/08/23 03:54:29;;;;;;;3.42;2.20;;;18.90;99.90;;;18.18;100.00;101139.91;3907863;30;20056;-77
2022/08/23 03:56:40;;;;;;;2.40;1.60;;;18.90;99.90;;;18.33;100.00;101156.63;3899192;30;20048;-78
2022/08/23 03:58:41;;;;;;;2.38;1.70;;;18.90;99.90;;;18.40;100.00;101160.16;3907582;30;20029;-77
2022/08/23 04:00:42;;;;;;;3.25;1.83;;;19.00;99.90;;;18.46;100.00;101155.88;3904989;30;20032;-77
2022/08/23 04:02:43;;;;;;;2.17;1.40;;;19.10;99.90;;;18.54;100.00;101158.44;3908124;30;20029;-77
2022/08/23 04:04:44;;;;;;;4.40;1.90;;;19.10;99.90;;;18.57;100.00;101158.88;3908063;30;20037;-78
2022/08/23 04:06:45;;;;;;;3.15;1.88;;;19.20;99.90;;;18.54;100.00;101153.09;3901891;30;20033;-77
2022/08/23 04:08:46;;;;;;;2.20;1.80;;;19.20;99.90;;;18.54;100.00;101151.25;3922474;30;20467;-77
2022/08/23 04:10:47;;;;;;;2.55;2.00;;;19.20;99.90;;;18.52;100.00;101163.94;3908142;30;20037;-78
2022/08/23 04:12:48;;;;;;;6.00;2.17;;;19.10;99.90;;;18.42;100.00;101159.97;3908623;30;20049;-78
2022/08/23 04:14:49;;;;;;;3.05;1.73;;;19.10;99.90;;;18.31;100.00;101152.53;3908524;30;20058;-77
2022/08/23 04:16:51;;;;;;;2.80;1.48;;;19.00;99.90;;;18.26;100.00;101153.09;3907751;30;20091;-78
2022/08/23 04:18:52;;;;;;;2.70;1.85;;;18.90;99.90;;;18.23;100.00;101153.47;3906938;30;20044;-77
2022/08/23 04:20:53;;;;;;;4.35;1.85;;;18.90;99.90;;;18.21;100.00;101159.03;3908787;30;20406;-77
2022/08/23 04:22:56;;;;;;;5.15;2.60;;;18.90;99.90;;;18.28;100.00;101160.94;3907526;30;20090;-78
2022/08/23 04:24:57;;;;;;;3.55;2.03;;;18.90;99.90;;;18.29;100.00;101163.38;3893828;30;20048;-78
2022/08/23 04:26:57;;;;;;;3.78;2.00;;;18.90;99.90;;;18.39;100.00;101171.88;3907316;30;20029;-78
2022/08/23 04:28:59;;;;;;;5.10;2.88;;;18.90;99.90;;;18.41;100.00;101164.47;3908819;30;20519;-78
2022/08/23 04:31:02;;;;;;;6.43;2.40;;;19.00;99.90;;;18.46;100.00;101156.69;3907774;30;20044;-78
2022/08/23 04:33:03;;;;;;;2.65;2.08;;;19.10;99.90;;;18.57;100.00;101166.88;3903705;30;20033;-78
2022/08/23 04:35:05;;;;;;;3.60;1.95;;;19.20;99.90;;;18.61;100.00;101167.28;3906744;30;20037;-78
2022/08/23 04:37:07;;;;;;;2.50;1.65;;;19.20;99.90;;;18.63;100.00;101162.59;3897825;30;20045;-78
2022/08/23 04:39:09;;;;;;;2.97;1.88;;;19.30;99.90;;;18.70;100.00;101163.41;3921777;30;20035;-78
2022/08/23 04:43:29;;;;;;;3.80;2.30;;;19.40;99.90;;;18.82;100.00;101179.75;3897163;30;20104;-78
2022/08/23 04:45:31;;;;;;;3.17;1.85;;;19.40;99.90;;;18.82;100.00;101179.75;3907378;30;20040;-78
2022/08/23 04:47:33;;;;;;;3.55;1.73;;;19.40;99.90;;;18.74;100.00;101180.72;3903560;30;20043;-78
2022/08/23 04:49:34;;;;;;;4.47;2.47;;;19.30;99.90;;;18.65;100.00;101182.75;3908169;30;20091;-77
2022/08/23 04:51:35;;;;;;;3.25;1.85;;;19.30;99.90;;;18.56;100.00;101178.56;3907060;30;20158;-78
2022/08/23 04:53:38;;;;;;;2.97;1.83;;;19.20;99.90;;;18.33;100.00;101156.63;3900712;30;20052;-78
2022/08/23 04:55:38;;;;;;;4.15;1.85;;;19.10;99.90;;;18.45;100.00;101184.44;3907104;30;20047;-78
2022/08/23 04:57:41;;;;;;;5.10;2.20;;;19.10;99.90;;;18.40;100.00;101181.53;3906026;30;20033;-78
2022/08/23 04:59:42;;;;;;;3.85;2.30;;;19.00;99.90;;;18.38;100.00;101169.38;3906968;30;20591;-78
2022/08/23 05:01:43;;;;;;;5.35;2.42;;;19.00;99.90;;;18.36;100.00;101177.63;3905834;30;20037;-78
2022/08/23 05:03:44;;;;;;;3.85;2.10;;;19.00;99.90;;;18.34;100.00;101178.84;3906896;30;20040;-78
2022/08/23 05:05:45;;;;;;;5.65;2.50;;;18.90;99.90;;;18.33;100.00;101186.03;3906763;30;20033;-78
2022/08/23 05:07:46;;;;;;;3.08;2.10;;;18.90;99.90;;;18.21;100.00;101176.91;3906938;30;20090;-78
2022/08/23 05:09:47;;;;;;;3.17;2.03;;;18.90;99.90;;;18.31;100.00;101195.25;3914438;30;20037;-78
2022/08/23 05:11:48;;;;;;;5.18;2.15;;;18.90;99.90;;;18.28;100.00;101193.78;3892140;30;20048;-78
2022/08/23 05:13:49;;;;;;;2.92;1.90;;;18.90;99.90;;;18.25;100.00;101191.50;3906648;30;20057;-78
2022/08/23 05:15:51;;;;;;;4.53;2.40;;;18.90;99.90;;;18.23;100.00;101193.53;3897327;30;20076;-78
2022/08/23 05:17:52;;;;;;;3.10;1.92;;;18.80;99.90;;;18.20;100.00;101199.28;3906704;30;20041;-78
2022/08/23 05:19:53;;;;;;;2.78;1.77;;;18.80;99.90;;;18.05;100.00;101171.84;3901946;30;20520;-77
2022/08/23 05:21:54;;;;;;;2.85;1.95;;;18.80;99.90;;;18.15;100.00;101202.53;3920881;30;20481;-78
2022/08/23 05:23:55;;;;;;;3.70;1.80;;;18.80;99.90;;;18.17;100.00;101205.00;3907072;30;20025;-78
2022/08/23 05:25:57;;;;;;;3.10;2.05;;;18.80;99.90;;;18.19;100.00;101206.44;3907643;30;20097;-78
2022/08/23 05:27:58;;;;;;;2.97;2.00;;;18.70;99.90;;;18.22;100.00;101207.91;3907759;30;20033;-78
2022/08/23 05:29:59;;;;;;;2.88;1.63;;;18.80;99.90;;;18.20;100.00;101209.94;3907895;30;20036;-78
2022/08/23 05:32:00;;;;;;;3.25;1.88;;;18.80;99.90;;;18.22;100.00;101207.91;3907763;30;20037;-78
2022/08/23 05:34:01;;;;;;;3.10;1.90;;;18.80;99.90;;;18.25;100.00;101205.66;3907021;30;20049;-78
2022/08/23 05:36:04;;;;;;;4.68;1.98;;;18.80;99.90;;;18.28;100.00;101207.13;3901537;30;20033;-78
2022/08/23 05:38:05;;;;;;;2.38;1.73;;;18.90;99.90;;;18.35;100.00;101221.34;3906336;30;20108;-78
2022/08/23 05:40:07;;;;;;;4.28;2.00;;;18.90;99.90;;;18.42;100.00;101208.06;3907782;30;20087;-78
2022/08/23 05:42:12;;;;;;;2.42;1.80;;;19.00;99.90;;;18.52;100.00;101220.06;3906460;30;20549;-78
2022/08/23 05:44:13;;;;;;;3.47;2.20;;;19.00;99.90;;;18.53;100.00;101219.06;3903897;30;20037;-77
2022/08/23 05:46:20;;;;;;;5.68;2.30;;;19.10;99.90;;;18.49;100.00;101217.78;3906203;30;20045;-78
2022/08/23 05:48:21;;;;;;;3.08;1.80;;;19.10;99.90;;;18.61;100.00;101232.25;3907789;30;20044;-78
2022/08/23 05:50:22;;;;;;;3.03;1.90;;;19.20;99.90;;;18.65;100.00;101236.19;3907479;30;20041;-77
2022/08/23 05:52:23;;;;;;;2.47;1.75;;;19.20;99.90;;;18.73;100.00;101240.53;3907484;30;20060;-78
2022/08/23 05:54:24;;;;;;;2.95;1.80;;;19.30;99.90;;;18.84;100.00;101240.00;3907440;30;20041;-77
2022/08/23 05:56:35;;;;;;;2.53;1.50;;;19.40;99.90;;;18.97;100.00;101239.22;3906357;30;20051;-77
2022/08/23 05:58:36;;;;;;;2.13;1.38;;;19.50;99.90;;;19.02;100.00;101242.16;3901624;30;20095;-78
2022/08/23 06:00:37;;;;;;;2.35;1.38;;;19.60;99.90;;;19.00;100.00;101228.13;3906299;30;20041;-78
2022/08/23 06:02:38;;;;;;;4.45;1.33;;;19.60;99.90;;;19.14;100.00;101245.91;3907339;30;20064;-78
2022/08/23 06:04:40;;;;;;;3.05;1.63;;;19.70;99.90;;;19.05;100.00;101229.22;3907456;30;20419;-78
2022/08/23 06:06:42;;;;;;;2.20;1.30;;;19.70;99.90;;;19.08;100.00;101225.31;3906063;30;20040;-77
2022/08/23 06:08:46;;;;;;;1.77;1.17;;;19.80;99.90;;;19.25;100.00;101239.97;3903082;30;20047;-78
2022/08/23 06:10:46;;;;;;;1.77;1.13;;;19.80;99.90;;;19.32;100.00;101246.19;3907225;30;20414;-77
2022/08/23 06:12:47;;;;;;;1.65;1.08;;;19.90;99.90;;;19.31;100.00;101241.84;3907042;30;20041;-78
2022/08/23 06:14:48;;;;;;;1.67;1.02;;;19.90;99.90;;;19.31;100.00;101244.53;3905879;30;20195;-78
2022/08/23 06:16:51;;;;;;;1.48;1.00;;;19.90;99.90;;;19.25;100.00;101243.47;3902871;30;20495;-78
2022/08/23 06:18:56;;;;;;;4.57;1.85;;;19.80;99.90;;;19.18;100.00;101236.44;3920612;30;20131;-77
2022/08/23 06:21:03;;;;;;;2.67;1.20;;;19.80;99.90;;;19.11;100.00;101227.56;3920668;30;20033;-78
2022/08/23 06:23:06;;;;;;;2.15;1.42;;;19.70;99.90;;;19.08;100.00;101225.31;3905893;30;20111;-78
2022/08/23 06:25:08;;;;;;;2.25;1.40;;;19.70;99.90;;;19.07;100.00;101235.16;3889933;30;20483;-78
2022/08/23 06:27:08;;;;;;;1.83;1.05;;;19.70;99.90;;;19.09;100.00;101233.09;3920400;30;20483;-78
2022/08/23 06:29:13;;;;;;;1.45;1.10;;;19.60;99.90;;;19.10;100.00;101233.94;3907185;30;20033;-78
2022/08/23 06:31:15;;;;;;;1.35;0.93;;;19.60;99.90;;;19.11;100.00;101236.44;3905570;30;20446;-78
2022/08/23 06:33:16;;;;;;;1.08;0.70;;;19.70;99.90;;;19.15;100.00;101243.00;3905331;30;20033;-78
2022/08/23 06:35:17;;;;;;;2.50;0.98;;;19.70;99.90;;;19.14;100.00;101230.69;3909906;30;20105;-78
2022/08/23 06:37:18;;;;;;;1.05;0.75;;;19.80;99.90;;;19.39;100.00;101248.84;3908730;30;20053;-78
2022/08/23 06:39:22;;;;;;;2.40;0.57;;;19.90;99.90;;;19.58;100.00;101243.59;3908842;30;20530;-78
2022/08/23 06:41:23;;;;;;;1.15;0.60;;;20.00;99.90;;;19.69;100.00;101234.97;3906685;30;20032;-78
2022/08/23 06:43:24;;;;;;;1.20;0.57;;;20.20;99.90;;;19.92;100.00;101256.03;3898104;30;20033;-78
2022/08/23 06:45:26;;;;;;;0.80;0.40;;;20.30;99.90;;;19.95;100.00;101233.38;3908888;30;20114;-78
2022/08/23 06:47:27;;;;;;;0.75;0.40;;;20.50;99.90;;;20.22;100.00;101253.78;3903575;30;20041;-78
2022/08/23 06:49:28;;;;;;;2.30;0.43;;;20.60;99.90;;;20.28;100.00;101250.28;3908585;30;20534;-78
2022/08/23 06:51:37;;;;;;;0.50;0.30;;;20.70;99.90;;;20.30;100.00;101226.78;3898875;30;20041;-78
2022/08/23 06:53:38;;;;;;;0.63;0.40;;;20.90;99.90;;;20.62;100.00;101257.25;3908526;30;20029;-78
2022/08/23 06:55:40;;;;;;;0.70;0.40;;;21.00;99.90;;;20.63;100.00;101257.06;3889233;30;20038;-78
2022/08/23 06:57:41;;;;;;;2.15;0.50;;;21.10;99.90;;;20.70;100.00;101265.06;3922116;30;20020;-78
2022/08/23 06:59:42;;;;;;;0.95;0.60;;;21.10;99.90;;;20.74;100.00;101255.56;3909645;30;20124;-78
2022/08/23 07:02:04;;;;;;;1.20;0.50;;;21.20;99.90;;;20.74;100.00;101259.09;3908688;30;20423;-78
2022/08/23 07:04:09;;;;;;;1.75;0.77;;;21.30;99.90;;;20.88;100.00;101263.38;3907610;30;20064;-78
2022/08/23 07:06:10;;;;;;;0.98;0.50;;;21.40;99.90;;;20.96;100.00;101263.16;3910052;30;20037;-79
2022/08/23 07:08:11;;;;;;;1.10;0.70;;;21.40;99.90;;;20.88;100.00;101249.97;3909657;30;20116;-78
2022/08/23 07:10:14;;;;;;;1.27;0.85;;;21.50;99.90;;;20.91;100.00;101257.59;3908542;30;20040;-78
2022/08/23 07:12:15;;;;;;;1.10;0.80;;;21.50;99.90;;;21.04;100.00;101272.81;3908150;30;20033;-78
2022/08/23 07:14:19;;;;;;;4.10;0.88;;;21.60;99.90;;;21.08;100.00;101268.72;3894046;30;20050;-78
2022/08/23 07:16:20;;;;;;;1.13;0.57;;;21.60;99.90;;;21.16;100.00;101279.22;3923027;30;20390;-78
2022/08/23 07:18:21;;;;;;;1.88;0.60;;;21.60;99.90;;;21.04;100.00;101251.34;3908377;30;20047;-78
2022/08/23 07:20:22;;;;;;;0.85;0.50;;;21.70;99.90;;;21.27;100.00;101275.03;3906676;30;20076;-78
2022/08/23 07:22:23;;;;;;;1.23;0.70;;;21.70;99.90;;;21.17;100.00;101258.56;3908526;30;20514;-78
2022/08/23 07:24:25;;;;;;;0.80;0.50;;;21.80;99.90;;;21.38;100.00;101266.31;3909589;30;20094;-78
2022/08/23 07:26:26;;;;;;;0.80;0.50;;;21.90;99.90;;;21.56;100.00;101277.19;3908027;30;20029;-78
2022/08/23 07:28:29;;;;;;;0.90;0.60;;;22.00;99.90;;;21.59;100.00;101265.19;3907276;30;20048;-78
2022/08/23 07:30:30;;;;;;;0.80;0.60;;;22.20;99.90;;;21.74;100.00;101276.47;3907665;30;20048;-78
2022/08/23 07:32:31;;;;;;;0.90;0.60;;;22.30;99.90;;;21.84;100.00;101284.84;3900699;30;20116;-78
2022/08/23 07:34:32;;;;;;;1.13;0.80;;;22.30;99.90;;;21.73;100.00;101278.31;3893620;30;20491;-78
2022/08/23 07:36:34;;;;;;;1.30;0.70;;;22.40;99.90;;;21.76;100.00;101285.09;3907910;30;20119;-78
2022/08/23 07:38:36;;;;;;;1.45;0.75;;;22.40;99.90;;;21.82;100.00;101287.75;3908227;30;20033;-78
2022/08/23 07:40:36;;;;;;;1.10;0.70;;;22.40;99.90;;;21.74;100.00;101273.78;3886202;30;20527;-78
2022/08/23 07:42:38;;;;;;;1.40;0.70;;;22.40;99.90;;;21.93;100.00;101283.56;3909006;30;20095;-78
2022/08/23 07:44:39;;;;;;;0.82;0.60;;;22.50;99.90;;;22.03;100.00;101290.13;3908127;30;20033;-78
2022/08/23 07:46:43;;;;;;;0.90;0.55;;;22.50;99.90;;;22.00;100.00;101287.06;3897141;30;20040;-78
2022/08/23 07:48:44;;;;;;;;;;;22.60;99.90;;;22.02;100.00;101285.78;3908302;30;20033;-78
2022/08/23 07:50:58;;;;;;;2.05;0.68;;;22.70;99.90;;;22.33;100.00;101294.84;3893741;30;19915;-78
2022/08/23 07:53:01;;;;;;;;;;;22.90;99.90;;;22.44;100.00;101289.59;3922599;30;20037;-78
2022/08/23 07:55:03;;;;;;;1.02;0.70;;;23.00;99.90;;;22.63;100.00;101301.22;3907768;30;19919;-78
2022/08/23 07:57:03;;;;;;;1.13;0.52;;;23.20;99.90;;;22.67;100.00;101286.28;3907840;30;20037;-78
2022/08/23 07:59:07;;;;;;;2.20;0.40;;;23.30;99.90;;;22.53;100.00;101279.38;3907697;30;20120;-78
2022/08/23 08:01:22;;;;;;;1.23;0.50;;;23.30;99.90;;;22.72;100.00;101310.69;3907929;30;20033;-78
2022/08/23 08:03:23;;;;;;;0.82;0.40;;;23.30;99.90;;;22.58;100.00;101282.19;3907718;30;20080;-78
2022/08/23 08:05:24;;;;;;;1.00;0.50;;;23.30;99.90;;;22.63;100.00;101290.44;3902917;30;20490;-78
2022/08/23 08:07:26;;;;;;;0.82;0.40;;;23.40;99.90;;;22.78;100.00;101282.06;3907777;30;20033;-78
2022/08/23 08:09:27;;;;;;;0.70;0.40;;;23.40;99.90;;;23.15;100.00;101305.22;3909003;30;20115;-78
2022/08/23 08:11:32;;;;;;;0.40;0.20;;;23.60;99.90;;;23.08;100.00;101277.59;3907368;30;20518;-78
2022/08/23 08:13:36;;;;;;;0.68;0.17;;;23.70;99.90;;;23.25;100.00;101284.00;3907654;30;20142;-78
2022/08/23 08:15:41;;;;;;;1.15;0.43;;;23.90;99.90;;;22.87;100.00;101276.16;3907039;30;20037;-78
2022/08/23 08:17:42;;;;;;;0.38;0.20;;;23.90;99.90;;;23.25;100.00;101304.69;3907653;30;20061;-78
2022/08/23 08:19:43;;;;;;;2.05;0.50;;;23.90;99.90;;;23.42;100.00;101298.50;3887045;30;20034;-78
2022/08/23 08:21:45;;;;;;;1.45;0.50;;;24.00;99.90;;;23.70;100.00;101314.09;3908976;30;20033;-78
2022/08/23 08:23:46;;;;;;;1.30;0.40;;;24.10;99.90;;;23.73;100.00;101315.50;3907471;30;20057;-78
2022/08/23 08:25:47;;;;;;;0.65;0.20;;;24.20;99.90;;;23.71;100.00;101298.75;3903210;30;20117;-78
2022/08/23 08:27:48;;;;;;;1.13;0.32;;;24.30;99.90;;;23.87;100.00;101309.69;3921997;30;20072;-78
2022/08/23 08:29:49;;;;;;;0.77;0.40;;;24.50;99.90;;;23.85;100.00;101321.75;3907384;30;20410;-78
2022/08/23 08:31:50;;;;;;;1.40;0.40;;;24.50;99.90;;;23.72;100.00;101312.00;3907528;30;20041;-78
2022/08/23 08:33:51;;;;;;;0.63;0.40;;;24.40;99.90;;;23.38;100.00;101315.31;3907635;30;20479;-78